Forside
METAR-TAF:

METAR-TAF

Lufthavne :

Saint-Denis, Réunion

Breddekreds: 20-53S, længdekreds: 055-31E, højde: 21 m

Aktuelle vejr

Denne rapport blev lavet for 34 minutter siden, kl. 18:30 UTC
Vind 6 kt fra sydsydøst, varierende mellem østsydøst og syd
Temperatur 20°C
Fugtighed 83%
Tryk 1019 hPa
Sigt 10 km eller mere

METAR: FMEE 221830Z AUTO 16006KT 110V190 9999 OVC036/// 20/17 Q1019 NOSIG

Tid: 23:04 (19:04 UTC)

Vejrudsigter

Denne rapport blev lavet for 2 timer og 4 minutter siden, kl. 17:00 UTC
Foreløbig gælder fra 22 på 18 UTC til 23 på 24 UTC
Vind 5 kt fra syd
Sigt 10 km eller mere
Spredte skyer i en højde af 3600 ft
ændring
fra 23 på 04 UTC til 23 på 06 UTC
Vind 16 kt fra østsydøst
ændring
fra 23 på 14 UTC til 23 på 16 UTC
Vind 4 kt fra sydsydøst

TAF: FMEE 221700Z 2218/2324 18005KT 9999 SCT036 BECMG 2304/2306 11016KT BECMG 2314/2316 16004KT

Vejrobservationer og prognoser fra mere end 4000 lufthavne (METAR og TAF).

De gule og røde prikker repræsenterer de meteorologiske stationer.

Flyt musen over at se navnet på stationen.

Så klik over at se vejr observationer og prognoser.

At skifte det kort: Klik på de grønne knapper med et sort kors for at zoome ind; på den grønne knap med en bindestreg for at zoome ud; eller på de grønne pile for tilstødende kort.


METAR-TAF: